Portada
METAR-TAF:

METAR-TAF

Aeroports :

Kirksville Regional Airport

Kirksville, Missouri, Estats Units d'Amèrica

latitud: 40-05-50N, longitud: 092-32-36W, altitud: 294 m

Observació

L'informe es va fer fa 1 hora i 2 minuts, a les 09:55 UTC
Vent 5 kt del Oest/Nord-Oest
Temperatura -16°C
Humitat 84%
Pressió 1037 hPa
Visibilitat: 16.1 km
Cel clar

METAR: KIRK 120955Z AUTO 30005KT 10SM CLR M16/M18 A3061 RMK AO2 SLP388 T11561178

Hora: 04:57 (10:57 UTC)


TAF: manca

Observacions i pronòstics meteorològics de més de 4000 aeroports (METAR i TAF).

Les estacions disponibles són els punts grocs i vermells al mapa.

Posi el ratolí al punt desitjat per veure el nom de l'estació.

Feu clic per veure les observacions i els pronòstics meteorològics.

Per canviar el mapa: feu clic els botons verds amb una creu de color negre per apropar; al botó verd amb un guió per allunyar la imatge; o en les fletxes verdes per a mapes adjacents.


METAR-TAF: